createdAt,value
2023-05-22T00:02:24.267Z,13.50
2023-05-22T00:04:50.930Z,14.55
2023-05-22T00:07:18.782Z,13.18
2023-05-22T00:09:45.285Z,14.68
2023-05-22T00:12:11.812Z,13.20
2023-05-22T00:14:38.362Z,13.52
2023-05-22T00:17:05.121Z,12.55
2023-05-22T00:19:31.770Z,14.68
2023-05-22T00:21:58.690Z,13.97
2023-05-22T00:24:26.606Z,14.20
2023-05-22T00:26:53.126Z,14.52
2023-05-22T00:29:19.605Z,14.32
2023-05-22T00:31:46.121Z,14.23
2023-05-22T00:34:12.656Z,14.68
2023-05-22T00:36:39.225Z,15.05
2023-05-22T00:39:05.705Z,14.75
2023-05-22T00:41:33.619Z,15.18
2023-05-22T00:44:00.270Z,15.02
2023-05-22T00:46:27.016Z,13.50
2023-05-22T00:48:53.547Z,13.40
2023-05-22T00:51:21.347Z,14.15
2023-05-22T00:53:48.585Z,15.90
2023-05-22T00:56:15.696Z,15.38
2023-05-22T00:58:44.187Z,14.95
2023-05-22T01:01:11.032Z,14.88
2023-05-22T01:03:38.807Z,15.02
2023-05-22T01:06:05.684Z,14.48
2023-05-22T01:08:32.253Z,14.07
2023-05-22T01:11:04.241Z,13.85
2023-05-22T01:13:39.994Z,13.70
2023-05-22T01:16:17.619Z,14.40
2023-05-22T03:47:07.957Z,14.05
2023-05-22T03:49:34.507Z,15.75
2023-05-22T03:52:01.033Z,15.27
2023-05-22T03:54:27.510Z,15.38
2023-05-22T03:56:53.969Z,13.77
2023-05-22T03:59:20.447Z,15.50
2023-05-22T04:01:47.024Z,15.25
2023-05-22T04:04:14.923Z,14.87
2023-05-22T04:06:41.498Z,15.18
2023-05-22T04:09:08.049Z,15.50
2023-05-22T04:11:34.569Z,15.75
2023-05-22T04:14:03.455Z,15.85
2023-05-22T04:16:30.008Z,15.30
2023-05-22T04:18:56.805Z,14.87
2023-05-22T04:21:24.637Z,16.07
2023-05-22T04:23:51.188Z,15.00
2023-05-22T04:26:18.550Z,15.25
2023-05-22T04:28:45.031Z,13.32
2023-05-22T04:31:11.835Z,14.25
2023-05-22T04:33:38.531Z,14.98
2023-05-22T04:36:05.953Z,14.13
2023-05-22T04:41:00.266Z,14.88
2023-05-22T04:43:26.811Z,14.10
2023-05-22T04:45:53.479Z,14.25
2023-05-22T04:48:20.022Z,14.00
2023-05-22T04:50:46.936Z,14.70
2023-05-22T04:53:13.591Z,14.73
2023-05-22T04:55:41.756Z,14.03
2023-05-22T04:58:08.283Z,13.80
2023-05-22T05:00:34.923Z,15.25
2023-05-22T05:03:01.620Z,15.40
2023-05-22T05:05:28.260Z,13.73
2023-05-22T05:07:54.816Z,13.55
2023-05-22T05:10:21.300Z,13.75
2023-05-22T05:12:49.200Z,13.82
2023-05-22T05:15:15.805Z,14.95
2023-05-22T05:17:42.433Z,14.37
2023-05-22T05:20:09.774Z,15.57
2023-05-22T05:22:36.259Z,14.43
2023-05-22T05:25:03.098Z,15.18
2023-05-22T05:27:29.631Z,13.80
2023-05-22T05:29:57.511Z,13.02
2023-05-22T05:32:24.259Z,12.95
2023-05-22T05:34:51.022Z,12.93
2023-05-22T05:37:17.542Z,13.17
2023-05-22T05:39:44.044Z,12.88
2023-05-22T05:42:10.571Z,13.05
2023-05-22T05:44:37.152Z,12.55
2023-05-22T05:47:05.652Z,13.40
2023-05-22T05:49:34.171Z,13.02
2023-05-22T05:52:02.096Z,13.00
2023-05-22T05:54:28.673Z,13.63
2023-05-22T05:56:55.262Z,13.03
2023-05-22T05:59:21.801Z,12.88
2023-05-22T06:01:48.740Z,13.75
2023-05-22T06:04:16.613Z,13.10
2023-05-22T06:06:43.128Z,13.98
2023-05-22T06:09:09.697Z,13.02
2023-05-22T06:11:36.681Z,13.13
2023-05-22T06:14:04.902Z,13.40
2023-05-22T06:16:31.482Z,13.60
2023-05-22T06:18:59.122Z,13.80
2023-05-22T06:21:27.213Z,13.52
2023-05-22T06:23:53.863Z,13.18
2023-05-22T06:26:20.425Z,13.40
2023-05-22T06:28:46.947Z,12.30
2023-05-22T06:31:13.547Z,11.32
2023-05-22T06:33:40.205Z,10.90
2023-05-22T06:36:07.281Z,11.43
2023-05-22T06:38:35.148Z,11.45
2023-05-22T06:41:01.720Z,11.68
2023-05-22T06:43:28.245Z,11.47
2023-05-22T06:45:54.780Z,11.85
2023-05-22T06:48:21.351Z,11.37
2023-05-22T06:50:48.006Z,11.70
2023-05-22T06:53:14.467Z,13.47
2023-05-22T06:55:42.317Z,12.80
2023-05-22T06:58:15.667Z,11.77
2023-05-22T07:00:42.612Z,12.23
2023-05-22T07:03:09.429Z,13.13
2023-05-22T07:05:36.266Z,12.97
2023-05-22T07:08:02.903Z,12.70
2023-05-22T07:10:29.496Z,13.10
2023-05-22T07:12:57.360Z,12.23
2023-05-22T07:15:23.861Z,11.85
2023-05-22T07:17:50.397Z,12.85
2023-05-22T07:20:17.189Z,12.20
2023-05-22T07:22:43.721Z,11.53
2023-05-22T07:25:10.450Z,12.48
2023-05-22T07:27:36.985Z,12.25
2023-05-22T07:30:06.353Z,12.47
2023-05-22T07:32:32.871Z,11.32
2023-05-22T07:34:59.389Z,12.27
2023-05-22T07:37:25.960Z,12.00
2023-05-22T07:39:52.453Z,13.02
2023-05-22T07:42:18.932Z,13.32
2023-05-22T07:44:45.416Z,12.23
2023-05-22T07:47:13.341Z,12.45
2023-05-22T07:49:39.879Z,12.60
2023-05-22T07:52:06.970Z,12.85
2023-05-22T07:54:33.721Z,11.88
2023-05-22T07:57:00.343Z,13.73
2023-05-22T07:59:26.819Z,13.70
2023-05-22T08:01:53.364Z,12.50
2023-05-22T08:04:21.915Z,13.32
2023-05-22T08:06:48.488Z,12.50
2023-05-22T08:09:15.091Z,12.50
2023-05-22T08:11:42.415Z,11.50
2023-05-22T08:14:09.624Z,10.93
2023-05-22T08:16:36.236Z,11.35
2023-05-22T08:19:03.236Z,11.68
2023-05-22T08:21:31.169Z,10.95
2023-05-22T08:23:57.727Z,10.85
2023-05-22T08:26:24.245Z,11.27
2023-05-22T08:28:50.749Z,12.63
2023-05-22T08:31:17.286Z,11.07
2023-05-22T08:33:43.821Z,11.00
2023-05-22T08:36:10.444Z,10.23
2023-05-22T08:38:38.397Z,9.90
2023-05-22T08:41:06.180Z,8.75
2023-05-22T08:43:32.750Z,9.43
2023-05-22T08:46:00.850Z,8.98
2023-05-22T08:48:30.248Z,9.45
2023-05-22T08:50:58.319Z,9.75
2023-05-22T08:53:28.051Z,14.45
2023-05-22T08:55:56.556Z,28.60
2023-05-22T08:58:23.543Z,9.70
2023-05-22T09:00:50.370Z,14.27
2023-05-22T09:03:16.985Z,12.93
2023-05-22T09:05:44.418Z,20.05
2023-05-22T09:08:19.569Z,10.30
2023-05-22T09:10:46.720Z,16.98
2023-05-22T09:13:24.988Z,9.02
2023-05-22T09:15:51.506Z,9.55
2023-05-22T09:18:18.157Z,9.18
2023-05-22T09:20:44.886Z,10.13
2023-05-22T09:23:12.037Z,9.73
2023-05-22T09:25:38.573Z,7.80
2023-05-22T09:28:05.118Z,8.57
2023-05-22T09:30:35.453Z,9.43
2023-05-22T09:33:02.114Z,8.10
2023-05-22T09:35:31.330Z,9.52
2023-05-22T09:37:58.724Z,9.23
2023-05-22T09:40:27.575Z,8.32
2023-05-22T09:42:54.109Z,10.13
2023-05-22T09:45:22.087Z,7.97
2023-05-22T09:47:50.475Z,7.78
2023-05-22T09:50:17.140Z,8.07
2023-05-22T09:52:45.493Z,7.97
2023-05-22T09:55:13.748Z,8.13
2023-05-22T09:57:42.853Z,8.63
2023-05-22T10:00:12.196Z,8.45
2023-05-22T10:02:43.752Z,8.05
2023-05-22T10:05:12.790Z,7.72
2023-05-22T10:07:47.108Z,8.23
2023-05-22T10:10:17.245Z,8.20
2023-05-22T10:12:47.807Z,8.63
2023-05-22T10:15:17.264Z,8.25
2023-05-22T10:17:44.529Z,7.40
2023-05-22T10:20:13.145Z,6.43
2023-05-22T10:22:40.372Z,7.93
2023-05-22T10:25:10.464Z,7.53
2023-05-22T10:27:38.052Z,7.32
2023-05-22T10:30:16.292Z,8.25
2023-05-22T10:32:46.897Z,7.40
2023-05-22T10:35:20.130Z,7.80
2023-05-22T10:37:50.421Z,7.38
2023-05-22T10:40:22.560Z,7.68
2023-05-22T10:42:49.171Z,7.57
2023-05-22T10:45:16.526Z,7.65
2023-05-22T10:47:43.121Z,7.60
2023-05-22T10:50:10.912Z,7.40
2023-05-22T10:52:39.473Z,7.53
2023-05-22T10:55:07.283Z,7.80
2023-05-22T10:57:34.410Z,8.13
2023-05-22T11:00:09.857Z,6.97
2023-05-22T11:02:41.600Z,7.28
2023-05-22T11:05:33.292Z,7.53
2023-05-22T11:08:25.419Z,7.57
2023-05-22T11:10:52.731Z,7.07
2023-05-22T11:13:19.280Z,7.95
2023-05-22T11:15:46.254Z,7.20
2023-05-22T11:18:12.974Z,7.38
2023-05-22T11:20:40.187Z,7.00
2023-05-22T11:23:08.074Z,6.68
2023-05-22T11:25:37.986Z,7.78
2023-05-22T11:28:05.574Z,7.47
2023-05-22T11:30:32.501Z,7.13
2023-05-22T11:33:00.136Z,6.60
2023-05-22T11:35:27.552Z,7.65
2023-05-22T11:37:55.038Z,6.97
2023-05-22T11:40:22.502Z,6.63
2023-05-22T11:42:50.467Z,7.28
2023-05-22T11:45:17.133Z,7.32
2023-05-22T11:47:44.354Z,6.88
2023-05-22T11:50:11.888Z,6.82
2023-05-22T11:52:40.092Z,7.50
2023-05-22T11:55:09.172Z,7.18
2023-05-22T11:57:36.042Z,7.43
2023-05-22T12:00:05.982Z,7.10
2023-05-22T12:02:32.850Z,5.60
2023-05-22T12:04:59.441Z,6.70
2023-05-22T12:07:26.826Z,6.90
2023-05-22T12:09:56.348Z,6.97
2023-05-22T12:12:23.109Z,6.78
2023-05-22T12:14:50.064Z,6.65
2023-05-22T12:17:18.333Z,7.10
2023-05-22T12:19:45.363Z,6.93
2023-05-22T12:22:15.199Z,6.90
2023-05-22T12:24:43.326Z,6.13
2023-05-22T12:27:10.764Z,6.95
2023-05-22T12:29:37.440Z,5.50
2023-05-22T12:32:07.196Z,6.32
2023-05-22T12:34:35.923Z,6.82
2023-05-22T12:37:02.472Z,6.45
2023-05-22T12:39:29.000Z,6.20
2023-05-22T12:41:55.491Z,6.18
2023-05-22T12:44:22.015Z,6.00
2023-05-22T12:46:48.614Z,6.18
2023-05-22T12:49:15.144Z,5.90
2023-05-22T12:51:43.822Z,6.03
2023-05-22T12:54:10.352Z,6.25
2023-05-22T12:56:36.911Z,5.57
2023-05-22T12:59:03.397Z,6.78
2023-05-22T13:01:30.055Z,6.28
2023-05-22T13:03:56.746Z,6.60
2023-05-22T13:06:23.254Z,6.30
2023-05-22T13:11:17.488Z,6.60
2023-05-22T13:16:10.611Z,7.25
2023-05-22T13:18:37.217Z,6.47
2023-05-22T13:23:30.147Z,6.72
2023-05-22T13:25:57.987Z,6.60
2023-05-22T13:28:24.470Z,6.97
2023-05-22T13:30:50.975Z,7.10
2023-05-22T13:33:17.565Z,6.60
2023-05-22T13:38:12.304Z,6.85
2023-05-22T13:40:38.984Z,7.75
2023-05-22T13:43:07.756Z,7.40
2023-05-22T13:45:34.280Z,7.68
2023-05-22T13:48:01.103Z,7.82
2023-05-22T13:50:27.634Z,7.70
2023-05-22T13:52:54.180Z,6.70
2023-05-22T13:55:20.943Z,6.38
2023-05-22T13:57:47.533Z,6.57
2023-05-22T14:00:16.499Z,6.07
2023-05-22T14:02:43.122Z,6.05
2023-05-22T14:05:09.962Z,6.47
2023-05-22T14:07:36.546Z,5.65
2023-05-22T14:10:03.729Z,5.77
2023-05-22T14:12:33.121Z,6.00
2023-05-22T14:14:59.804Z,4.70
2023-05-22T14:17:28.357Z,5.88
2023-05-22T14:19:54.981Z,5.45
2023-05-22T14:22:21.517Z,5.45
2023-05-22T14:24:48.244Z,6.63
2023-05-22T14:27:14.788Z,5.22
2023-05-22T14:29:41.483Z,5.60
2023-05-22T14:32:08.361Z,5.80
2023-05-22T14:34:36.333Z,5.43
2023-05-22T14:37:02.885Z,6.40
2023-05-22T14:39:29.549Z,5.67
2023-05-22T14:41:56.705Z,5.82
2023-05-22T14:44:23.511Z,6.05
2023-05-22T14:46:50.579Z,5.93
2023-05-22T14:49:17.122Z,5.40
2023-05-22T14:51:45.017Z,5.67
2023-05-22T14:54:13.041Z,5.95
2023-05-22T14:56:41.069Z,6.90
2023-05-22T14:59:07.628Z,7.27
2023-05-22T15:01:34.172Z,5.32
2023-05-22T15:04:00.702Z,7.77
2023-05-22T15:06:27.223Z,7.95
2023-05-22T15:08:55.145Z,8.13
2023-05-22T15:11:21.639Z,8.45
2023-05-22T15:13:48.707Z,8.13
2023-05-22T15:16:15.226Z,8.68
2023-05-22T15:18:41.744Z,8.77
2023-05-22T15:21:08.398Z,8.97
2023-05-22T15:23:34.902Z,8.25
2023-05-22T15:26:02.760Z,8.25
2023-05-22T15:28:29.260Z,8.00
2023-05-22T15:30:55.748Z,7.72
2023-05-22T15:33:22.232Z,7.47
2023-05-22T15:35:48.756Z,5.03
2023-05-22T15:38:15.342Z,8.20
2023-05-22T15:40:42.319Z,7.37
2023-05-22T15:43:10.471Z,6.30
2023-05-22T15:45:37.333Z,6.70
2023-05-22T15:48:04.081Z,7.50
2023-05-22T15:50:30.762Z,7.30
2023-05-22T15:52:57.299Z,6.73
2023-05-22T15:55:23.940Z,6.23
2023-05-22T15:57:50.567Z,5.93
2023-05-22T16:00:19.143Z,7.27
2023-05-22T16:02:45.747Z,5.95
2023-05-22T16:05:12.333Z,5.53
2023-05-22T16:07:38.874Z,7.00
2023-05-22T16:10:06.565Z,6.27
2023-05-22T16:12:33.106Z,5.72
2023-05-22T16:15:00.718Z,6.67
2023-05-22T16:17:29.399Z,6.25
2023-05-22T16:19:55.890Z,6.47
2023-05-22T16:22:23.488Z,6.63
2023-05-22T16:24:52.786Z,7.28
2023-05-22T16:27:19.362Z,6.83
2023-05-22T16:29:45.870Z,6.20
2023-05-22T16:32:12.364Z,6.23
2023-05-22T16:34:40.207Z,5.85
2023-05-22T16:37:06.729Z,6.53
2023-05-22T16:39:33.346Z,5.70
2023-05-22T16:42:00.328Z,6.70
2023-05-22T16:44:26.940Z,6.32
2023-05-22T16:46:53.507Z,7.27
2023-05-22T16:49:20.079Z,7.03
2023-05-22T16:51:47.902Z,6.70
2023-05-22T16:54:14.425Z,6.55
2023-05-22T16:56:40.952Z,7.80
2023-05-22T16:59:07.433Z,7.47
2023-05-22T17:01:34.065Z,7.13
2023-05-22T17:04:00.627Z,7.07
2023-05-22T17:06:27.240Z,7.60
2023-05-22T17:08:55.054Z,6.90
2023-05-22T17:11:21.681Z,7.88
2023-05-22T17:13:48.182Z,6.90
2023-05-22T17:16:14.758Z,6.73
2023-05-22T17:18:41.276Z,7.40
2023-05-22T17:21:07.771Z,7.03
2023-05-22T17:23:34.342Z,6.65
2023-05-22T17:26:02.200Z,6.37
2023-05-22T17:28:28.702Z,6.95
2023-05-22T17:30:55.219Z,6.83
2023-05-22T17:33:21.857Z,7.03
2023-05-22T17:35:48.503Z,7.00
2023-05-22T17:38:15.092Z,7.43
2023-05-22T17:40:45.631Z,7.70
2023-05-22T17:43:14.090Z,7.57
2023-05-22T17:45:40.793Z,8.00
2023-05-22T17:48:07.662Z,9.65
2023-05-22T17:50:34.266Z,8.48
2023-05-22T17:53:00.863Z,9.18
2023-05-22T17:55:27.357Z,8.77
2023-05-22T17:57:54.117Z,8.55
2023-05-22T18:00:22.210Z,9.27
2023-05-22T18:02:48.852Z,8.38
2023-05-22T18:05:15.419Z,9.15
2023-05-22T18:07:41.976Z,8.95
2023-05-22T18:10:09.160Z,9.98
2023-05-22T18:12:38.002Z,8.32
2023-05-22T18:15:05.561Z,8.88
2023-05-22T18:17:33.445Z,8.32
2023-05-22T18:20:00.877Z,8.85
2023-05-22T18:24:53.721Z,8.82
2023-05-22T18:27:20.252Z,8.23
2023-05-22T18:29:46.752Z,8.55
2023-05-22T18:32:13.312Z,8.95
2023-05-22T18:34:41.138Z,9.67
2023-05-22T18:37:07.678Z,9.35
2023-05-22T18:39:34.271Z,8.97
2023-05-22T18:42:00.783Z,8.50
2023-05-22T18:44:27.274Z,8.48
2023-05-22T18:46:53.830Z,8.90
2023-05-22T18:49:20.467Z,9.10
2023-05-22T18:51:48.314Z,9.48
2023-05-22T18:54:14.912Z,8.35
2023-05-22T18:56:41.455Z,8.57
2023-05-22T18:59:07.968Z,8.90
2023-05-22T19:01:34.584Z,9.25
2023-05-22T19:04:01.154Z,9.37
2023-05-22T19:06:27.703Z,8.88
2023-05-22T19:08:55.578Z,9.60
2023-05-22T19:11:22.072Z,9.45
2023-05-22T19:13:48.570Z,9.27
2023-05-22T19:16:15.146Z,9.43
2023-05-22T19:18:41.699Z,9.43
2023-05-22T19:21:08.231Z,10.20
2023-05-22T19:23:34.729Z,10.25
2023-05-22T19:26:02.742Z,10.40
2023-05-22T19:28:29.258Z,10.15
2023-05-22T19:30:55.774Z,10.30
2023-05-22T19:33:22.277Z,9.18
2023-05-22T19:35:48.828Z,10.80
2023-05-22T19:38:15.316Z,10.40
2023-05-22T19:40:42.057Z,10.65
2023-05-22T19:43:10.013Z,10.43
2023-05-22T19:45:36.518Z,9.73
2023-05-22T19:48:03.069Z,10.82
2023-05-22T19:50:29.779Z,9.70
2023-05-22T19:52:56.335Z,11.13
2023-05-22T19:55:22.843Z,10.48
2023-05-22T19:57:49.364Z,10.45
2023-05-22T20:00:18.156Z,11.00
2023-05-22T20:02:44.801Z,10.85
2023-05-22T20:05:11.525Z,10.05
2023-05-22T20:07:38.154Z,11.43
2023-05-22T20:10:05.668Z,11.03
2023-05-22T20:14:58.672Z,10.50
2023-05-22T20:17:26.591Z,10.80
2023-05-22T20:19:53.076Z,10.88
2023-05-22T20:22:19.665Z,11.38
2023-05-22T20:24:46.246Z,11.98
2023-05-22T20:27:12.938Z,9.93
2023-05-22T20:29:39.433Z,10.47
2023-05-22T20:32:06.799Z,10.50
2023-05-22T20:37:01.449Z,9.77
2023-05-22T20:39:27.967Z,10.23
2023-05-22T20:41:54.595Z,9.63
2023-05-22T20:44:21.346Z,11.43
2023-05-22T20:46:47.903Z,10.65
2023-05-22T20:49:14.441Z,10.75
2023-05-22T20:51:42.290Z,10.63
2023-05-22T20:54:08.853Z,10.63
2023-05-22T20:56:35.314Z,10.70
2023-05-22T20:59:01.831Z,10.40
2023-05-22T21:01:28.354Z,11.13
2023-05-22T21:03:55.006Z,10.90
2023-05-22T21:06:21.571Z,10.02
2023-05-22T21:08:50.508Z,10.55
2023-05-22T21:11:18.529Z,11.50
2023-05-22T21:13:45.140Z,12.35
2023-05-22T21:16:11.631Z,11.37
2023-05-22T21:18:38.331Z,11.65
2023-05-22T21:21:04.866Z,11.03
2023-05-22T21:23:31.358Z,11.70
2023-05-22T21:25:59.278Z,11.43
2023-05-22T21:28:26.291Z,10.75
2023-05-22T21:30:52.798Z,11.30
2023-05-22T21:33:19.300Z,11.40
2023-05-22T21:35:45.797Z,12.43
2023-05-22T21:38:12.319Z,13.02
2023-05-22T21:40:39.116Z,14.00
2023-05-22T21:43:07.161Z,13.30
2023-05-22T21:45:33.746Z,12.57
2023-05-22T21:48:00.317Z,10.83
2023-05-22T21:50:26.887Z,11.73
2023-05-22T21:52:53.405Z,12.40
2023-05-22T21:55:20.876Z,12.10
2023-05-22T21:57:47.402Z,12.70
2023-05-22T22:00:16.087Z,12.68
2023-05-22T22:02:42.801Z,14.30
2023-05-22T22:05:09.764Z,12.02
2023-05-22T22:07:36.257Z,12.43
2023-05-22T22:10:02.992Z,11.50
2023-05-22T22:12:29.613Z,11.90
2023-05-22T22:14:56.855Z,13.32
2023-05-22T22:17:24.723Z,11.93
2023-05-22T22:19:51.226Z,11.98
2023-05-22T22:22:17.716Z,12.40
2023-05-22T22:24:45.395Z,12.07
2023-05-22T22:27:12.899Z,12.80
2023-05-22T22:29:39.429Z,13.38
2023-05-22T22:32:06.323Z,13.13
2023-05-22T22:34:34.305Z,12.32
2023-05-22T22:37:00.808Z,12.30
2023-05-22T22:39:27.309Z,12.70
2023-05-22T22:41:53.838Z,12.75
2023-05-22T22:44:20.403Z,12.52
2023-05-22T22:46:47.145Z,13.00
2023-05-22T22:49:13.744Z,14.27
2023-05-22T22:51:41.579Z,13.20
2023-05-22T22:54:08.217Z,12.25
2023-05-22T22:56:34.728Z,12.83
2023-05-22T22:59:01.328Z,12.07
2023-05-22T23:01:27.959Z,12.05
2023-05-22T23:03:54.559Z,10.00
2023-05-22T23:06:21.114Z,10.37
2023-05-22T23:08:48.962Z,10.48
2023-05-22T23:11:16.352Z,10.75
2023-05-22T23:13:43.073Z,10.50
2023-05-22T23:16:09.638Z,10.47
2023-05-22T23:18:36.188Z,9.68
2023-05-22T23:21:02.759Z,10.35
2023-05-22T23:23:29.277Z,11.13
2023-05-22T23:25:59.013Z,10.45
2023-05-22T23:28:25.808Z,11.38
2023-05-22T23:30:52.464Z,11.77
2023-05-22T23:33:18.981Z,12.00
2023-05-22T23:35:45.902Z,13.07
2023-05-22T23:38:12.413Z,12.48
2023-05-22T23:40:38.892Z,11.90
2023-05-22T23:43:06.726Z,11.50
2023-05-22T23:45:33.252Z,13.20
2023-05-22T23:47:59.808Z,13.52
2023-05-22T23:50:26.442Z,13.67
2023-05-22T23:52:55.382Z,14.60
2023-05-22T23:55:21.880Z,14.23
2023-05-22T23:57:48.342Z,15.07
